Etusivu
METAR-TAF:

METAR-TAF

Lentoasemat :

Chariton Municipal Airport

Chariton, Iowa, Yhdysvallat

Leveyspiiri: 41-02N, Pituuspiiri: 093-22W, korkeus merenpinnasta: 320 m

Tämänhetkinen sää

Tämä raportti tehtiin 24 minuuttia sitten, kello 20.15 UTC
Tuuli 14 kn pohjoisen/luoteesta
Lämpötila 0°C
Kosteus 64%
Ilmanpaine 1024 hPa
Näkyvyys: 16.1 km
Hajonneita pilviä 3600 ft:n korkeudessa
Hajonneita pilviä 4300 ft:n korkeudessa

METAR: KCNC 262015Z AUTO 33014KT 10SM BKN036 BKN043 M00/M06 A3024 RMK AO2

Aika: 14:39 (20:39 UTC)


TAF: puuttuu

Säähavainnot ja -ennusteet yli 4000 lentoasemalta (METAR- ja TAF-raportit).

Käytössä olevat sääasemat on merkitty karttaan keltaisilla ja punaisilla pisteillä.

Aseta hiiri pisteen päälle nähdäksesi sääaseman nimen.

Klikkaa sitten nähdäksesi säähavainnot ja -ennusteet.

Kartan vaihtaminen: klikkaa mustalla rastilla varustettuja vihreitä pisteitä, niin voit zoomata sisään; viivalla varustettua vihreää pistettä, niin voit zoomata ulos tai vihreitä nuolia, niin pääset viereisille kartoille.


METAR-TAF: